createdAt,value
2023-01-06T00:01:45.782Z,41.20
2023-01-06T00:04:13.839Z,41.30
2023-01-06T00:06:41.894Z,41.30
2023-01-06T00:09:11.089Z,41.20
2023-01-06T00:11:39.084Z,41.40
2023-01-06T00:14:07.172Z,41.40
2023-01-06T00:16:35.140Z,40.80
2023-01-06T00:19:04.780Z,41.10
2023-01-06T00:21:32.810Z,41.40
2023-01-06T00:24:00.750Z,41.60
2023-01-06T00:26:28.799Z,41.60
2023-01-06T00:28:58.075Z,41.80
2023-01-06T00:31:26.124Z,42.00
2023-01-06T00:33:56.330Z,41.60
2023-01-06T00:36:25.994Z,41.50
2023-01-06T00:38:54.021Z,42.30
2023-01-06T00:41:40.339Z,41.90
2023-01-06T00:44:08.654Z,42.20
2023-01-06T00:46:36.700Z,42.10
2023-01-06T00:49:07.583Z,42.20
2023-01-06T00:51:39.998Z,42.00
2023-01-06T00:54:09.517Z,42.50
2023-01-06T00:56:38.572Z,42.50
2023-01-06T00:59:07.601Z,42.10
2023-01-06T01:01:36.925Z,42.70
2023-01-06T01:04:05.592Z,42.50
2023-01-06T01:06:34.189Z,42.10
2023-01-06T01:09:04.473Z,42.70
2023-01-06T01:11:50.274Z,42.50
2023-01-06T01:14:22.017Z,42.50
2023-01-06T01:16:50.015Z,42.60
2023-01-06T01:19:18.971Z,42.40
2023-01-06T01:21:47.295Z,42.60
2023-01-06T01:24:16.906Z,42.50
2023-01-06T01:26:45.084Z,43.10
2023-01-06T01:29:15.113Z,42.80
2023-01-06T01:31:43.931Z,42.90
2023-01-06T01:34:14.835Z,42.60
2023-01-06T01:36:44.754Z,43.00
2023-01-06T01:39:14.811Z,42.40
2023-01-06T01:41:44.620Z,42.90
2023-01-06T01:44:54.469Z,43.00
2023-01-06T01:47:29.398Z,43.20
2023-01-06T01:50:03.072Z,43.20
2023-01-06T01:52:31.263Z,43.20
2023-01-06T01:54:59.280Z,43.30
2023-01-06T01:57:34.401Z,43.50
2023-01-06T02:00:05.995Z,43.30
2023-01-06T02:02:34.447Z,43.00
2023-01-06T02:05:03.421Z,43.00
2023-01-06T02:07:31.820Z,43.20
2023-01-06T02:10:13.020Z,43.40
2023-01-06T02:12:43.870Z,43.30
2023-01-06T02:15:21.606Z,43.80
2023-01-06T02:18:29.540Z,43.60
2023-01-06T02:21:16.752Z,43.60
2023-01-06T02:24:30.650Z,43.50
2023-01-06T02:27:29.477Z,43.50
2023-01-06T02:30:50.793Z,43.70
2023-01-06T02:33:27.512Z,44.60
2023-01-06T02:36:11.717Z,44.20
2023-01-06T02:39:05.754Z,43.80
2023-01-06T02:41:42.661Z,44.00
2023-01-06T02:44:20.833Z,44.10
2023-01-06T02:47:12.217Z,43.90
2023-01-06T02:49:48.326Z,43.80
2023-01-06T02:52:24.434Z,43.90
2023-01-06T02:55:00.540Z,43.90
2023-01-06T02:57:36.969Z,43.60
2023-01-06T03:00:12.412Z,43.90
2023-01-06T03:02:43.653Z,43.90
2023-01-06T03:05:17.445Z,43.70
2023-01-06T03:07:47.171Z,43.80
2023-01-06T03:10:17.898Z,43.80
2023-01-06T03:12:52.669Z,44.10
2023-01-06T03:15:20.933Z,43.30
2023-01-06T03:17:48.985Z,43.90
2023-01-06T03:20:18.525Z,44.20
2023-01-06T03:22:46.916Z,43.90
2023-01-06T03:25:16.341Z,44.10
2023-01-06T03:27:44.317Z,44.00
2023-01-06T03:30:14.550Z,44.50
2023-01-06T03:32:55.428Z,44.60
2023-01-06T03:35:51.109Z,44.60
2023-01-06T03:38:32.363Z,44.40
2023-01-06T03:41:08.256Z,45.00
2023-01-06T03:43:41.714Z,44.30
2023-01-06T03:46:23.587Z,44.20
2023-01-06T03:49:01.667Z,44.40
2023-01-06T03:51:43.585Z,44.20
2023-01-06T03:54:21.484Z,44.40
2023-01-06T03:56:58.279Z,44.70
2023-01-06T03:59:30.476Z,44.50
2023-01-06T04:01:59.042Z,44.50
2023-01-06T04:04:27.098Z,44.20
2023-01-06T04:06:56.429Z,44.50
2023-01-06T04:09:24.456Z,44.50
2023-01-06T04:12:09.969Z,44.50
2023-01-06T04:14:38.013Z,44.10
2023-01-06T04:17:06.052Z,44.40
2023-01-06T04:19:34.066Z,44.50
2023-01-06T04:22:03.591Z,44.40
2023-01-06T04:24:31.823Z,44.70
2023-01-06T04:26:59.774Z,44.50
2023-01-06T04:29:27.728Z,44.50
2023-01-06T04:31:55.798Z,44.30
2023-01-06T04:34:23.834Z,44.60
2023-01-06T04:36:51.794Z,44.80
2023-01-06T04:39:21.054Z,44.60
2023-01-06T04:41:49.063Z,44.50
2023-01-06T04:44:17.075Z,44.80
2023-01-06T04:46:45.066Z,44.90
2023-01-06T04:49:13.049Z,44.90
2023-01-06T04:51:41.001Z,45.10
2023-01-06T04:54:08.918Z,45.20
2023-01-06T04:56:38.266Z,45.00
2023-01-06T04:59:06.241Z,45.00
2023-01-06T05:01:34.550Z,45.00
2023-01-06T05:04:03.354Z,45.30
2023-01-06T05:06:31.414Z,45.00
2023-01-06T05:08:59.722Z,45.10
2023-01-06T05:11:28.313Z,45.10
2023-01-06T05:13:57.668Z,45.10
2023-01-06T05:16:28.343Z,44.90
2023-01-06T05:18:57.165Z,45.00
2023-01-06T05:21:29.280Z,45.20
2023-01-06T05:23:58.374Z,45.40
2023-01-06T05:26:28.725Z,45.30
2023-01-06T05:28:58.145Z,45.40
2023-01-06T05:31:26.569Z,45.20
2023-01-06T05:33:54.589Z,45.20
2023-01-06T05:36:22.575Z,46.00
2023-01-06T05:38:54.970Z,44.50
2023-01-06T05:41:23.256Z,45.30
2023-01-06T05:43:51.309Z,45.50
2023-01-06T05:46:20.671Z,45.30
2023-01-06T05:48:48.671Z,45.50
2023-01-06T05:51:18.063Z,45.60
2023-01-06T05:53:48.991Z,45.80
2023-01-06T05:56:19.844Z,45.50
2023-01-06T05:58:50.796Z,44.70
2023-01-06T06:01:24.131Z,44.60
2023-01-06T06:03:53.901Z,44.40
2023-01-06T06:06:24.260Z,46.00
2023-01-06T06:08:52.510Z,45.80
2023-01-06T06:11:22.222Z,45.90
2023-01-06T06:13:52.831Z,44.90
2023-01-06T06:16:24.153Z,45.00
2023-01-06T06:18:54.982Z,46.20
2023-01-06T06:21:25.293Z,45.80
2023-01-06T06:23:55.197Z,46.10
2023-01-06T06:26:24.201Z,46.20
2023-01-06T06:28:52.431Z,46.30
2023-01-06T06:31:24.003Z,45.50
2023-01-06T06:33:52.754Z,45.50
2023-01-06T06:36:21.165Z,46.60
2023-01-06T06:38:51.680Z,46.60
2023-01-06T06:41:21.002Z,46.70
2023-01-06T06:43:50.225Z,46.70
2023-01-06T06:46:18.725Z,46.70
2023-01-06T06:48:49.477Z,45.70
2023-01-06T06:51:20.732Z,47.00
2023-01-06T06:53:49.215Z,46.80
2023-01-06T06:56:19.365Z,46.80
2023-01-06T06:58:47.577Z,47.00
2023-01-06T07:01:17.920Z,47.20
2023-01-06T07:03:47.634Z,47.00
2023-01-06T07:06:18.826Z,47.30
2023-01-06T07:08:47.839Z,47.20
2023-01-06T07:11:16.138Z,46.50
2023-01-06T07:13:44.223Z,47.70
2023-01-06T07:16:12.823Z,47.20
2023-01-06T07:18:41.283Z,47.60
2023-01-06T07:21:10.688Z,47.30
2023-01-06T07:23:38.922Z,47.70
2023-01-06T07:26:11.843Z,47.50
2023-01-06T07:28:39.882Z,47.70
2023-01-06T07:31:07.890Z,47.90
2023-01-06T07:33:35.933Z,45.80
2023-01-06T07:36:04.092Z,45.30
2023-01-06T07:38:33.458Z,43.70
2023-01-06T07:41:02.092Z,41.90
2023-01-06T07:43:30.295Z,40.80
2023-01-06T07:45:58.658Z,40.40
2023-01-06T07:48:26.689Z,39.30
2023-01-06T07:50:54.612Z,37.00
2023-01-06T07:53:22.773Z,38.10
2023-01-06T07:55:53.381Z,38.70
2023-01-06T07:58:24.061Z,38.50
2023-01-06T08:00:52.647Z,38.30
2023-01-06T08:03:20.715Z,38.00
2023-01-06T08:05:48.750Z,38.00
2023-01-06T08:08:17.006Z,37.90
2023-01-06T08:10:45.084Z,38.20
2023-01-06T08:13:14.414Z,37.70
2023-01-06T08:15:42.640Z,38.30
2023-01-06T08:18:10.757Z,38.00
2023-01-06T08:20:38.848Z,38.30
2023-01-06T08:23:06.841Z,38.90
2023-01-06T08:25:34.852Z,38.80
2023-01-06T08:28:02.849Z,38.90
2023-01-06T08:30:32.709Z,38.90
2023-01-06T08:33:01.046Z,38.90
2023-01-06T08:35:29.302Z,39.20
2023-01-06T08:37:57.431Z,39.30
2023-01-06T08:40:25.408Z,39.00
2023-01-06T08:42:53.441Z,40.00
2023-01-06T08:45:21.430Z,39.00
2023-01-06T08:47:50.849Z,39.50
2023-01-06T08:50:18.874Z,39.60
2023-01-06T08:52:46.958Z,39.50
2023-01-06T08:55:14.990Z,39.70
2023-01-06T08:57:42.983Z,39.70
2023-01-06T09:00:12.867Z,39.90
2023-01-06T09:02:40.885Z,39.90
2023-01-06T09:05:10.688Z,39.50
2023-01-06T09:07:38.660Z,39.70
2023-01-06T09:10:08.350Z,39.80
2023-01-06T09:12:36.382Z,39.50
2023-01-06T09:15:05.136Z,39.60
2023-01-06T09:17:33.102Z,40.00
2023-01-06T09:20:01.076Z,40.00
2023-01-06T09:22:30.421Z,39.80
2023-01-06T09:24:58.495Z,39.90
2023-01-06T09:27:26.539Z,40.00
2023-01-06T09:29:54.544Z,39.20
2023-01-06T09:32:22.461Z,35.60
2023-01-06T09:34:50.478Z,33.80
2023-01-06T09:37:18.422Z,34.30
2023-01-06T09:39:47.730Z,36.90
2023-01-06T09:42:32.937Z,38.40
2023-01-06T09:45:06.849Z,37.50
2023-01-06T09:47:40.599Z,37.00
2023-01-06T09:50:15.725Z,36.60
2023-01-06T09:52:48.429Z,36.80
2023-01-06T09:55:22.063Z,36.40
2023-01-06T09:57:58.187Z,36.80
2023-01-06T10:00:37.193Z,36.10
2023-01-06T10:03:06.200Z,37.00
2023-01-06T10:05:42.122Z,37.20
2023-01-06T10:08:18.405Z,37.50
2023-01-06T10:11:01.883Z,37.70
2023-01-06T10:13:48.184Z,38.00
2023-01-06T10:16:30.356Z,38.80
2023-01-06T10:19:10.809Z,40.00
2023-01-06T10:21:47.357Z,40.10
2023-01-06T10:24:32.986Z,40.00
2023-01-06T10:27:21.804Z,40.10
2023-01-06T10:29:52.423Z,40.00
2023-01-06T10:32:21.348Z,39.10
2023-01-06T10:34:51.974Z,39.00
2023-01-06T10:37:24.781Z,39.50
2023-01-06T10:40:03.340Z,39.10
2023-01-06T10:43:00.159Z,39.30
2023-01-06T10:45:33.662Z,38.20
2023-01-06T10:48:03.376Z,39.00
2023-01-06T10:50:31.622Z,39.10
2023-01-06T10:52:59.571Z,38.70
2023-01-06T10:55:40.315Z,38.90
2023-01-06T10:58:25.624Z,38.80
2023-01-06T11:01:00.872Z,38.90
2023-01-06T11:03:34.701Z,38.80
2023-01-06T11:06:11.863Z,38.70
2023-01-06T11:08:41.141Z,39.20
2023-01-06T11:11:27.626Z,39.30
2023-01-06T11:14:03.389Z,39.60
2023-01-06T11:16:34.529Z,39.60
2023-01-06T11:19:06.265Z,39.70
2023-01-06T11:21:41.420Z,40.00
2023-01-06T11:24:22.634Z,39.70
2023-01-06T11:26:56.480Z,39.70
2023-01-06T11:29:32.462Z,39.80
2023-01-06T11:32:06.664Z,39.90
2023-01-06T11:34:34.911Z,39.90
2023-01-06T11:37:03.191Z,39.90
2023-01-06T11:39:36.313Z,40.10
2023-01-06T11:42:11.079Z,39.60
2023-01-06T11:44:42.270Z,40.10
2023-01-06T11:47:16.909Z,39.90
2023-01-06T11:49:49.675Z,39.90
2023-01-06T11:52:24.972Z,39.80
2023-01-06T11:55:02.553Z,39.20
2023-01-06T11:57:39.643Z,39.20
2023-01-06T12:00:27.705Z,39.70
2023-01-06T12:03:07.386Z,39.60
2023-01-06T12:05:41.930Z,39.20
2023-01-06T12:08:19.407Z,39.90
2023-01-06T12:10:54.860Z,39.70
2023-01-06T12:13:23.660Z,39.90
2023-01-06T12:16:02.633Z,40.30
2023-01-06T12:18:34.336Z,40.60
2023-01-06T12:21:05.222Z,40.20
2023-01-06T12:23:36.996Z,40.40
2023-01-06T12:26:13.580Z,40.40
2023-01-06T12:28:46.486Z,39.90
2023-01-06T12:31:21.498Z,40.20
2023-01-06T12:33:56.556Z,40.20
2023-01-06T12:36:34.378Z,39.80
2023-01-06T12:39:06.108Z,39.70
2023-01-06T12:41:40.756Z,39.70
2023-01-06T12:44:19.185Z,39.90
2023-01-06T12:46:56.639Z,39.80
2023-01-06T12:49:34.569Z,39.80
2023-01-06T12:52:08.504Z,39.90
2023-01-06T12:54:37.464Z,40.40
2023-01-06T12:57:23.968Z,41.10
2023-01-06T13:00:11.770Z,40.00
2023-01-06T13:03:00.790Z,39.60
2023-01-06T13:05:52.652Z,40.00
2023-01-06T13:08:34.402Z,39.90
2023-01-06T13:11:16.889Z,39.60
2023-01-06T13:13:59.430Z,40.20
2023-01-06T13:16:36.759Z,40.30
2023-01-06T13:19:19.696Z,38.80
2023-01-06T13:21:50.062Z,38.80
2023-01-06T13:25:03.317Z,39.20
2023-01-06T13:27:51.934Z,39.00
2023-01-06T13:30:48.028Z,39.40
2023-01-06T13:33:42.854Z,39.00
2023-01-06T13:36:48.876Z,40.40
2023-01-06T13:39:20.680Z,39.20
2023-01-06T13:41:55.687Z,39.40
2023-01-06T13:44:28.073Z,39.00
2023-01-06T13:47:04.922Z,39.20
2023-01-06T13:49:34.195Z,39.20
2023-01-06T13:52:04.802Z,39.20
2023-01-06T13:55:02.490Z,39.70
2023-01-06T13:57:38.165Z,39.60
2023-01-06T14:00:27.197Z,39.60
2023-01-06T14:03:25.633Z,39.50
2023-01-06T14:05:56.297Z,39.60
2023-01-06T14:08:29.968Z,39.10
2023-01-06T14:11:03.041Z,39.20
2023-01-06T14:13:35.814Z,39.50
2023-01-06T14:16:08.591Z,39.80
2023-01-06T14:18:41.586Z,39.50
2023-01-06T14:21:21.660Z,39.90
2023-01-06T14:24:00.309Z,39.60
2023-01-06T14:26:50.009Z,39.50
2023-01-06T14:30:05.711Z,39.30
2023-01-06T14:33:05.192Z,39.60
2023-01-06T14:35:42.042Z,39.10
2023-01-06T14:38:26.988Z,39.70
2023-01-06T14:41:00.592Z,39.50
2023-01-06T14:43:34.888Z,40.00
2023-01-06T14:46:14.460Z,39.50
2023-01-06T14:48:50.003Z,39.20
2023-01-06T14:51:21.398Z,39.30
2023-01-06T14:54:00.117Z,39.90
2023-01-06T14:56:32.315Z,40.40
2023-01-06T14:59:13.002Z,39.70
2023-01-06T15:01:44.005Z,40.50
2023-01-06T15:04:25.574Z,40.20
2023-01-06T15:07:17.822Z,40.50
2023-01-06T15:09:46.644Z,39.90
2023-01-06T15:12:31.370Z,41.00
2023-01-06T15:15:16.521Z,40.80
2023-01-06T15:17:44.677Z,40.30
2023-01-06T15:20:14.896Z,40.50
2023-01-06T15:22:47.095Z,40.60
2023-01-06T15:25:23.262Z,40.70
2023-01-06T15:27:55.392Z,40.90
2023-01-06T15:30:26.423Z,40.80
2023-01-06T15:32:56.025Z,40.70
2023-01-06T15:35:27.615Z,40.90
2023-01-06T15:38:03.223Z,41.00
2023-01-06T15:40:31.351Z,41.00
2023-01-06T15:43:01.000Z,41.20
2023-01-06T15:45:33.239Z,41.30
2023-01-06T15:48:08.749Z,41.20
2023-01-06T15:50:37.622Z,41.20
2023-01-06T15:53:18.728Z,41.30
2023-01-06T15:55:51.585Z,42.10
2023-01-06T15:58:25.655Z,41.20
2023-01-06T16:01:00.809Z,41.00
2023-01-06T16:03:32.661Z,41.50
2023-01-06T16:06:12.263Z,41.60
2023-01-06T16:08:42.034Z,41.20
2023-01-06T16:11:41.233Z,41.30
2023-01-06T16:14:31.207Z,41.40
2023-01-06T16:17:09.798Z,41.40
2023-01-06T16:19:45.252Z,41.40
2023-01-06T16:22:37.804Z,41.20
2023-01-06T16:25:23.084Z,41.40
2023-01-06T16:27:53.808Z,41.30
2023-01-06T16:30:26.908Z,41.70
2023-01-06T16:32:56.079Z,41.30
2023-01-06T16:35:27.296Z,41.20
2023-01-06T16:37:55.659Z,40.90
2023-01-06T16:40:26.109Z,41.70
2023-01-06T16:43:00.203Z,41.30
2023-01-06T16:45:36.420Z,41.70
2023-01-06T16:48:04.776Z,41.60
2023-01-06T16:50:39.658Z,41.50
2023-01-06T16:53:14.868Z,41.50
2023-01-06T16:55:43.832Z,41.40
2023-01-06T16:58:18.303Z,41.70
2023-01-06T17:00:52.450Z,41.70
2023-01-06T17:03:22.906Z,41.90
2023-01-06T17:05:51.043Z,41.70
2023-01-06T17:08:25.353Z,41.70
2023-01-06T17:10:53.451Z,42.00
2023-01-06T17:13:36.645Z,41.60
2023-01-06T17:16:16.424Z,42.00
2023-01-06T17:18:54.545Z,41.70
2023-01-06T17:21:25.745Z,41.90
2023-01-06T17:23:58.858Z,42.10
2023-01-06T17:26:28.909Z,41.80
2023-01-06T17:28:58.887Z,41.70
2023-01-06T17:31:33.147Z,41.70
2023-01-06T17:34:11.924Z,41.60
2023-01-06T17:36:41.862Z,41.80
2023-01-06T17:39:21.070Z,41.70
2023-01-06T17:41:49.321Z,42.20
2023-01-06T17:44:19.993Z,41.30
2023-01-06T17:46:49.592Z,41.50
2023-01-06T17:49:35.251Z,41.80
2023-01-06T17:52:15.676Z,41.90
2023-01-06T17:55:10.538Z,41.70
2023-01-06T17:57:42.121Z,42.20
2023-01-06T18:00:20.339Z,41.70
2023-01-06T18:02:56.523Z,42.00
2023-01-06T18:06:19.696Z,42.30
2023-01-06T18:08:49.090Z,41.60
2023-01-06T18:11:33.745Z,42.30
2023-01-06T18:14:18.695Z,41.90
2023-01-06T18:16:48.694Z,42.00
2023-01-06T18:19:32.488Z,42.20
2023-01-06T18:22:03.903Z,41.90
2023-01-06T18:24:37.469Z,42.00
2023-01-06T18:27:14.602Z,41.90
2023-01-06T18:29:46.139Z,42.00
2023-01-06T18:32:27.278Z,42.00
2023-01-06T18:34:58.499Z,42.00
2023-01-06T18:37:29.155Z,42.00
2023-01-06T18:40:00.186Z,42.20
2023-01-06T18:42:32.052Z,41.50
2023-01-06T18:45:18.945Z,41.90
2023-01-06T18:47:52.119Z,42.00
2023-01-06T18:50:36.867Z,41.60
2023-01-06T18:53:19.466Z,42.20
2023-01-06T18:55:50.984Z,41.50
2023-01-06T18:58:42.316Z,41.70
2023-01-06T19:01:19.493Z,42.50
2023-01-06T19:04:00.344Z,42.00
2023-01-06T19:06:49.974Z,42.20
2023-01-06T19:09:23.965Z,42.10
2023-01-06T19:12:01.435Z,42.10
2023-01-06T19:14:33.192Z,41.40
2023-01-06T19:17:01.241Z,41.60
2023-01-06T19:19:36.324Z,42.00
2023-01-06T19:22:26.864Z,42.00
2023-01-06T19:25:03.131Z,41.70
2023-01-06T19:27:50.792Z,41.50
2023-01-06T19:30:43.963Z,42.00
2023-01-06T19:33:23.299Z,42.00
2023-01-06T19:35:52.903Z,42.50
2023-01-06T19:38:27.553Z,41.60
2023-01-06T19:40:58.389Z,41.60
2023-01-06T19:43:30.342Z,41.70
2023-01-06T19:45:58.591Z,41.50
2023-01-06T19:48:39.356Z,41.80
2023-01-06T19:51:33.495Z,41.50
2023-01-06T19:54:05.533Z,41.80
2023-01-06T19:56:37.580Z,41.90
2023-01-06T19:59:14.856Z,41.60
2023-01-06T20:01:42.996Z,41.10
2023-01-06T20:04:21.712Z,41.40
2023-01-06T20:06:50.102Z,41.80
2023-01-06T20:09:21.546Z,41.80
2023-01-06T20:11:50.573Z,41.70
2023-01-06T20:14:19.064Z,41.20
2023-01-06T20:16:47.926Z,41.30
2023-01-06T20:19:16.691Z,42.90
2023-01-06T20:21:44.714Z,41.60
2023-01-06T20:24:14.171Z,41.50
2023-01-06T20:26:43.840Z,41.90
2023-01-06T20:29:11.904Z,41.60
2023-01-06T20:31:39.939Z,40.90
2023-01-06T20:34:08.009Z,41.50
2023-01-06T20:36:35.950Z,41.50
2023-01-06T20:39:04.034Z,41.70
2023-01-06T20:41:32.135Z,41.40
2023-01-06T20:44:01.476Z,41.50
2023-01-06T20:46:29.492Z,41.80
2023-01-06T20:48:57.467Z,41.00
2023-01-06T20:51:25.519Z,41.30
2023-01-06T20:53:53.482Z,41.30
2023-01-06T20:56:21.630Z,41.50
2023-01-06T20:58:49.644Z,41.50
2023-01-06T21:01:19.094Z,41.60
2023-01-06T21:03:47.219Z,41.50
2023-01-06T21:06:16.062Z,42.20
2023-01-06T21:08:44.001Z,41.30
2023-01-06T21:11:11.996Z,41.50
2023-01-06T21:13:39.934Z,41.80
2023-01-06T21:16:08.872Z,41.60
2023-01-06T21:18:38.295Z,42.00
2023-01-06T21:21:06.906Z,41.70
2023-01-06T21:23:34.942Z,41.80
2023-01-06T21:26:02.929Z,41.70
2023-01-06T21:28:30.943Z,41.80
2023-01-06T21:30:59.122Z,41.60
2023-01-06T21:33:27.773Z,41.50
2023-01-06T21:35:57.076Z,41.40
2023-01-06T21:38:25.111Z,41.60
2023-01-06T21:40:53.814Z,41.50
2023-01-06T21:43:20.829Z,41.60
2023-01-06T21:45:48.954Z,41.40
2023-01-06T21:48:16.913Z,41.30
2023-01-06T21:50:46.011Z,41.30
2023-01-06T21:53:15.753Z,41.10
2023-01-06T21:55:43.783Z,41.40
2023-01-06T21:58:12.100Z,41.50
2023-01-06T22:00:40.173Z,41.60
2023-01-06T22:03:08.449Z,41.80
2023-01-06T22:05:36.614Z,41.50
2023-01-06T22:08:06.045Z,41.50
2023-01-06T22:10:38.187Z,41.30
2023-01-06T22:13:08.411Z,41.00
2023-01-06T22:15:37.030Z,41.50
2023-01-06T22:18:06.112Z,41.50
2023-01-06T22:20:35.848Z,41.30
2023-01-06T22:23:09.111Z,41.20
2023-01-06T22:25:38.457Z,41.00
2023-01-06T22:28:06.782Z,41.30
2023-01-06T22:30:34.817Z,41.30
2023-01-06T22:33:02.903Z,40.80
2023-01-06T22:35:31.083Z,41.20
2023-01-06T22:37:59.816Z,41.00
2023-01-06T22:40:28.139Z,41.10
2023-01-06T22:42:57.732Z,41.20
2023-01-06T22:45:25.775Z,41.10
2023-01-06T22:47:53.842Z,40.50
2023-01-06T22:50:21.920Z,40.90
2023-01-06T22:52:50.048Z,40.60
2023-01-06T22:55:18.251Z,41.20
2023-01-06T22:57:46.291Z,41.30
2023-01-06T23:00:19.494Z,41.30
2023-01-06T23:02:47.836Z,41.00
2023-01-06T23:05:16.229Z,41.00
2023-01-06T23:07:44.952Z,41.20
2023-01-06T23:10:15.157Z,41.00
2023-01-06T23:12:44.212Z,41.30
2023-01-06T23:15:12.924Z,40.90
2023-01-06T23:17:42.350Z,41.00
2023-01-06T23:20:11.952Z,40.90
2023-01-06T23:22:40.108Z,40.80
2023-01-06T23:25:09.153Z,40.80
2023-01-06T23:27:38.754Z,40.70
2023-01-06T23:30:08.811Z,40.30
2023-01-06T23:32:36.788Z,40.70
2023-01-06T23:35:07.035Z,40.80
2023-01-06T23:37:36.131Z,40.80
2023-01-06T23:40:04.384Z,40.50
2023-01-06T23:42:37.546Z,40.60
2023-01-06T23:45:12.462Z,40.40
2023-01-06T23:47:40.561Z,40.70
2023-01-06T23:50:10.758Z,40.90
2023-01-06T23:52:38.786Z,40.60
2023-01-06T23:55:08.128Z,40.60
2023-01-06T23:57:36.144Z,40.00
